sensor_id;sensor_type;location;lat;lon;timestamp;pressure;altitude;pressure_sealevel;temperature;humidity
59873;BME280;50750;51.636;4.948;2024-02-16T00:00:57;101079.52;;;14.18;68.66
59873;BME280;50750;51.636;4.948;2024-02-16T00:03:36;101081.64;;;14.17;68.67
59873;BME280;50750;51.636;4.948;2024-02-16T00:06:04;101084.14;;;14.16;68.70
59873;BME280;50750;51.636;4.948;2024-02-16T00:08:33;101083.82;;;14.16;68.61
59873;BME280;50750;51.636;4.948;2024-02-16T00:11:05;101083.66;;;14.15;68.58
59873;BME280;50750;51.636;4.948;2024-02-16T00:13:34;101083.65;;;14.15;68.73
59873;BME280;50750;51.636;4.948;2024-02-16T00:16:02;101082.08;;;14.15;68.61
59873;BME280;50750;51.636;4.948;2024-02-16T00:18:30;101084.88;;;14.16;68.64
59873;BME280;50750;51.636;4.948;2024-02-16T00:20:57;101075.03;;;14.15;68.64
59873;BME280;50750;51.636;4.948;2024-02-16T00:23:25;101071.52;;;14.15;68.52
59873;BME280;50750;51.636;4.948;2024-02-16T00:25:52;101070.85;;;14.14;68.60
59873;BME280;50750;51.636;4.948;2024-02-16T00:28:20;101070.86;;;14.14;68.65
59873;BME280;50750;51.636;4.948;2024-02-16T00:30:48;101074.94;;;14.13;68.41
59873;BME280;50750;51.636;4.948;2024-02-16T00:33:16;101073.20;;;14.12;68.71
59873;BME280;50750;51.636;4.948;2024-02-16T00:35:45;101075.50;;;14.12;68.57
59873;BME280;50750;51.636;4.948;2024-02-16T00:38:16;101080.11;;;14.12;68.63
59873;BME280;50750;51.636;4.948;2024-02-16T00:40:44;101077.46;;;14.12;68.56
59873;BME280;50750;51.636;4.948;2024-02-16T00:43:11;101074.65;;;14.12;68.65
59873;BME280;50750;51.636;4.948;2024-02-16T00:45:39;101072.37;;;14.11;68.37
59873;BME280;50750;51.636;4.948;2024-02-16T00:48:08;101071.68;;;14.11;68.44
59873;BME280;50750;51.636;4.948;2024-02-16T00:50:36;101069.58;;;14.11;68.60
59873;BME280;50750;51.636;4.948;2024-02-16T00:53:04;101067.67;;;14.10;68.36
59873;BME280;50750;51.636;4.948;2024-02-16T00:55:31;101063.10;;;14.10;68.45
59873;BME280;50750;51.636;4.948;2024-02-16T00:57:59;101059.92;;;14.10;68.65
59873;BME280;50750;51.636;4.948;2024-02-16T01:00:27;101053.61;;;14.09;68.35
59873;BME280;50750;51.636;4.948;2024-02-16T01:02:54;101052.36;;;14.10;68.40
59873;BME280;50750;51.636;4.948;2024-02-16T01:05:22;101046.02;;;14.10;68.53
59873;BME280;50750;51.636;4.948;2024-02-16T01:07:50;101038.61;;;14.10;68.59
59873;BME280;50750;51.636;4.948;2024-02-16T01:10:19;101033.51;;;14.10;68.45
59873;BME280;50750;51.636;4.948;2024-02-16T01:12:46;101035.10;;;14.10;68.38
59873;BME280;50750;51.636;4.948;2024-02-16T01:15:14;101034.41;;;14.10;68.23
59873;BME280;50750;51.636;4.948;2024-02-16T01:17:42;101033.73;;;14.09;68.27
59873;BME280;50750;51.636;4.948;2024-02-16T01:20:11;101037.61;;;14.09;68.37
59873;BME280;50750;51.636;4.948;2024-02-16T01:22:40;101034.65;;;14.08;68.43
59873;BME280;50750;51.636;4.948;2024-02-16T01:25:09;101035.73;;;14.08;68.39
59873;BME280;50750;51.636;4.948;2024-02-16T01:27:36;101032.73;;;14.08;68.66
59873;BME280;50750;51.636;4.948;2024-02-16T01:30:06;101030.45;;;14.07;68.50
59873;BME280;50750;51.636;4.948;2024-02-16T01:32:34;101031.68;;;14.08;68.48
59873;BME280;50750;51.636;4.948;2024-02-16T01:35:02;101029.56;;;14.08;68.58
59873;BME280;50750;51.636;4.948;2024-02-16T01:37:29;101029.20;;;14.08;68.68
59873;BME280;50750;51.636;4.948;2024-02-16T01:39:57;101030.58;;;14.09;68.60
59873;BME280;50750;51.636;4.948;2024-02-16T01:42:25;101025.34;;;14.08;68.47
59873;BME280;50750;51.636;4.948;2024-02-16T01:44:53;101023.58;;;14.07;68.40
59873;BME280;50750;51.636;4.948;2024-02-16T01:47:21;101022.73;;;14.07;68.56
59873;BME280;50750;51.636;4.948;2024-02-16T01:49:49;101027.84;;;14.07;68.26
59873;BME280;50750;51.636;4.948;2024-02-16T01:52:16;101026.10;;;14.06;68.49
59873;BME280;50750;51.636;4.948;2024-02-16T01:54:44;101026.27;;;14.06;68.42
59873;BME280;50750;51.636;4.948;2024-02-16T01:57:12;101030.64;;;14.07;68.42
59873;BME280;50750;51.636;4.948;2024-02-16T01:59:40;101026.05;;;14.07;68.46
59873;BME280;50750;51.636;4.948;2024-02-16T02:02:08;101020.77;;;14.08;68.33
59873;BME280;50750;51.636;4.948;2024-02-16T02:04:36;101018.66;;;14.08;68.35
59873;BME280;50750;51.636;4.948;2024-02-16T02:07:12;101020.79;;;14.07;68.25
59873;BME280;50750;51.636;4.948;2024-02-16T02:09:40;101022.55;;;14.07;68.40
59873;BME280;50750;51.636;4.948;2024-02-16T02:12:08;101020.65;;;14.06;68.38
59873;BME280;50750;51.636;4.948;2024-02-16T02:14:37;101017.48;;;14.06;68.45
59873;BME280;50750;51.636;4.948;2024-02-16T02:17:05;101016.96;;;14.06;68.50
59873;BME280;50750;51.636;4.948;2024-02-16T02:19:33;101012.73;;;14.06;68.41
59873;BME280;50750;51.636;4.948;2024-02-16T02:22:01;101010.76;;;14.07;68.31
59873;BME280;50750;51.636;4.948;2024-02-16T02:24:28;101009.70;;;14.07;68.35
59873;BME280;50750;51.636;4.948;2024-02-16T02:26:56;101008.66;;;14.06;68.55
59873;BME280;50750;51.636;4.948;2024-02-16T02:29:24;101004.77;;;14.07;68.30
59873;BME280;50750;51.636;4.948;2024-02-16T02:31:52;101003.89;;;14.07;68.43
59873;BME280;50750;51.636;4.948;2024-02-16T02:34:19;101001.42;;;14.07;68.47
59873;BME280;50750;51.636;4.948;2024-02-16T02:36:47;101005.00;;;14.06;68.48
59873;BME280;50750;51.636;4.948;2024-02-16T02:39:15;101004.30;;;14.06;68.28
59873;BME280;50750;51.636;4.948;2024-02-16T02:41:43;101001.67;;;14.05;68.31
59873;BME280;50750;51.636;4.948;2024-02-16T02:44:11;100995.50;;;14.06;68.28
59873;BME280;50750;51.636;4.948;2024-02-16T02:46:39;100993.55;;;14.06;68.42
59873;BME280;50750;51.636;4.948;2024-02-16T02:49:06;100990.55;;;14.06;68.45
59873;BME280;50750;51.636;4.948;2024-02-16T02:51:35;100988.23;;;14.07;68.45
59873;BME280;50750;51.636;4.948;2024-02-16T02:54:03;100983.84;;;14.06;68.19
59873;BME280;50750;51.636;4.948;2024-02-16T02:56:31;100982.61;;;14.06;68.45
59873;BME280;50750;51.636;4.948;2024-02-16T02:58:59;100976.96;;;14.06;68.26
59873;BME280;50750;51.636;4.948;2024-02-16T03:01:26;100978.08;;;14.05;68.42
59873;BME280;50750;51.636;4.948;2024-02-16T03:03:54;100988.11;;;14.05;68.15
59873;BME280;50750;51.636;4.948;2024-02-16T03:06:22;100989.49;;;14.06;68.51
59873;BME280;50750;51.636;4.948;2024-02-16T03:08:50;100982.63;;;14.06;68.35
59873;BME280;50750;51.636;4.948;2024-02-16T03:11:18;100978.91;;;14.06;68.42
59873;BME280;50750;51.636;4.948;2024-02-16T03:13:46;100972.39;;;14.07;68.25
59873;BME280;50750;51.636;4.948;2024-02-16T03:16:14;100964.10;;;14.07;68.34
59873;BME280;50750;51.636;4.948;2024-02-16T03:18:41;100964.84;;;14.06;68.29
59873;BME280;50750;51.636;4.948;2024-02-16T03:21:13;100969.09;;;14.06;68.27
59873;BME280;50750;51.636;4.948;2024-02-16T03:23:43;100963.45;;;14.06;68.39
59873;BME280;50750;51.636;4.948;2024-02-16T03:26:18;100966.81;;;14.05;68.35
59873;BME280;50750;51.636;4.948;2024-02-16T03:28:47;100967.38;;;14.04;68.40
59873;BME280;50750;51.636;4.948;2024-02-16T03:31:18;100968.08;;;14.04;68.43
59873;BME280;50750;51.636;4.948;2024-02-16T03:33:47;100965.27;;;14.04;68.46
59873;BME280;50750;51.636;4.948;2024-02-16T03:36:15;100963.85;;;14.04;68.55
59873;BME280;50750;51.636;4.948;2024-02-16T03:38:43;100961.38;;;14.04;68.45
59873;BME280;50750;51.636;4.948;2024-02-16T03:41:13;100964.36;;;14.05;68.27
59873;BME280;50750;51.636;4.948;2024-02-16T03:43:41;100957.67;;;14.04;68.50
59873;BME280;50750;51.636;4.948;2024-02-16T03:46:10;100962.23;;;14.05;68.42
59873;BME280;50750;51.636;4.948;2024-02-16T03:48:39;100969.64;;;14.05;68.36
59873;BME280;50750;51.636;4.948;2024-02-16T03:51:07;100962.77;;;14.05;68.53
59873;BME280;50750;51.636;4.948;2024-02-16T03:53:35;100967.91;;;14.04;68.50
59873;BME280;50750;51.636;4.948;2024-02-16T03:56:03;100968.96;;;14.04;68.41
59873;BME280;50750;51.636;4.948;2024-02-16T03:58:32;100966.66;;;14.04;68.54
59873;BME280;50750;51.636;4.948;2024-02-16T04:01:00;100967.70;;;14.05;68.62
59873;BME280;50750;51.636;4.948;2024-02-16T04:03:28;100966.81;;;14.05;68.54
59873;BME280;50750;51.636;4.948;2024-02-16T04:05:56;100968.58;;;14.05;68.44
59873;BME280;50750;51.636;4.948;2024-02-16T04:08:23;100976.85;;;14.05;68.51
59873;BME280;50750;51.636;4.948;2024-02-16T04:10:51;100980.02;;;14.05;68.44
59873;BME280;50750;51.636;4.948;2024-02-16T04:13:18;100981.79;;;14.05;68.67
59873;BME280;50750;51.636;4.948;2024-02-16T04:15:46;100972.30;;;14.04;68.62
59873;BME280;50750;51.636;4.948;2024-02-16T04:18:14;100976.36;;;14.04;68.53
59873;BME280;50750;51.636;4.948;2024-02-16T04:20:41;100971.96;;;14.04;68.65
59873;BME280;50750;51.636;4.948;2024-02-16T04:23:09;100978.14;;;14.04;68.68
59873;BME280;50750;51.636;4.948;2024-02-16T04:25:37;100980.05;;;14.04;68.64
59873;BME280;50750;51.636;4.948;2024-02-16T04:28:06;100982.87;;;14.04;68.53
59873;BME280;50750;51.636;4.948;2024-02-16T04:30:33;100981.48;;;14.04;68.57
59873;BME280;50750;51.636;4.948;2024-02-16T04:33:02;100977.77;;;14.04;68.65
59873;BME280;50750;51.636;4.948;2024-02-16T04:35:31;100980.57;;;14.05;68.64
59873;BME280;50750;51.636;4.948;2024-02-16T04:37:59;100979.35;;;14.04;68.52
59873;BME280;50750;51.636;4.948;2024-02-16T04:40:27;100981.34;;;14.03;68.63
59873;BME280;50750;51.636;4.948;2024-02-16T04:42:54;100976.08;;;14.03;68.57
59873;BME280;50750;51.636;4.948;2024-02-16T04:45:22;100983.84;;;14.02;68.65
59873;BME280;50750;51.636;4.948;2024-02-16T04:47:50;100988.58;;;14.03;68.69
59873;BME280;50750;51.636;4.948;2024-02-16T04:50:17;100986.48;;;14.02;68.69
59873;BME280;50750;51.636;4.948;2024-02-16T04:52:45;100988.77;;;14.03;68.50
59873;BME280;50750;51.636;4.948;2024-02-16T04:55:13;100990.51;;;14.03;68.58
59873;BME280;50750;51.636;4.948;2024-02-16T04:57:41;100993.66;;;14.03;68.69
59873;BME280;50750;51.636;4.948;2024-02-16T05:00:11;100993.48;;;14.03;68.55
59873;BME280;50750;51.636;4.948;2024-02-16T05:02:39;100992.45;;;14.03;68.64
59873;BME280;50750;51.636;4.948;2024-02-16T05:05:07;100986.48;;;14.02;68.56
59873;BME280;50750;51.636;4.948;2024-02-16T05:07:35;100986.13;;;14.02;68.57
59873;BME280;50750;51.636;4.948;2024-02-16T05:10:07;100987.37;;;14.02;68.54
59873;BME280;50750;51.636;4.948;2024-02-16T05:12:36;100990.73;;;14.02;68.53
59873;BME280;50750;51.636;4.948;2024-02-16T05:15:05;100993.86;;;14.03;68.67
59873;BME280;50750;51.636;4.948;2024-02-16T05:17:33;100995.44;;;14.03;68.77
59873;BME280;50750;51.636;4.948;2024-02-16T05:20:01;100994.73;;;14.03;68.57
59873;BME280;50750;51.636;4.948;2024-02-16T05:22:28;100995.80;;;14.03;68.60
59873;BME280;50750;51.636;4.948;2024-02-16T05:24:56;100997.72;;;14.03;68.68
59873;BME280;50750;51.636;4.948;2024-02-16T05:27:24;100998.45;;;14.02;68.52
59873;BME280;50750;51.636;4.948;2024-02-16T05:29:52;100992.11;;;14.02;68.61
59873;BME280;50750;51.636;4.948;2024-02-16T05:32:19;100993.89;;;14.02;68.58
59873;BME280;50750;51.636;4.948;2024-02-16T05:34:47;100994.77;;;14.02;68.60
59873;BME280;50750;51.636;4.948;2024-02-16T05:37:15;100994.60;;;14.02;68.55
59873;BME280;50750;51.636;4.948;2024-02-16T05:39:42;100998.46;;;14.02;68.68
59873;BME280;50750;51.636;4.948;2024-02-16T05:42:21;100997.91;;;14.03;68.75
59873;BME280;50750;51.636;4.948;2024-02-16T05:44:49;100998.97;;;14.02;68.75
59873;BME280;50750;51.636;4.948;2024-02-16T05:47:18;101005.48;;;14.02;68.86
59873;BME280;50750;51.636;4.948;2024-02-16T05:49:46;101003.40;;;14.02;68.69
59873;BME280;50750;51.636;4.948;2024-02-16T05:52:14;101005.70;;;14.01;68.79
59873;BME280;50750;51.636;4.948;2024-02-16T05:54:48;101010.10;;;14.01;68.88
59873;BME280;50750;51.636;4.948;2024-02-16T05:57:16;101010.48;;;14.01;68.67
59873;BME280;50750;51.636;4.948;2024-02-16T05:59:45;101014.70;;;14.01;68.76
59873;BME280;50750;51.636;4.948;2024-02-16T06:02:13;101015.91;;;14.01;68.76
59873;BME280;50750;51.636;4.948;2024-02-16T06:04:42;101018.73;;;14.01;68.63
59873;BME280;50750;51.636;4.948;2024-02-16T06:07:09;101019.77;;;14.02;68.69
59873;BME280;50750;51.636;4.948;2024-02-16T06:09:38;101016.60;;;14.02;68.79
59873;BME280;50750;51.636;4.948;2024-02-16T06:12:07;101020.13;;;14.02;68.69
59873;BME280;50750;51.636;4.948;2024-02-16T06:14:36;101026.29;;;14.02;68.70
59873;BME280;50750;51.636;4.948;2024-02-16T06:17:04;101031.21;;;14.02;68.78
59873;BME280;50750;51.636;4.948;2024-02-16T06:19:32;101038.27;;;14.01;68.77
59873;BME280;50750;51.636;4.948;2024-02-16T06:22:00;101037.38;;;14.02;68.89
59873;BME280;50750;51.636;4.948;2024-02-16T06:24:27;101041.60;;;14.02;68.80
59873;BME280;50750;51.636;4.948;2024-02-16T06:26:55;101045.45;;;14.03;68.79
59873;BME280;50750;51.636;4.948;2024-02-16T06:29:23;101048.58;;;14.04;68.80
59873;BME280;50750;51.636;4.948;2024-02-16T06:31:51;101045.06;;;14.03;68.78
59873;BME280;50750;51.636;4.948;2024-02-16T06:34:19;101042.58;;;14.04;68.76
59873;BME280;50750;51.636;4.948;2024-02-16T06:36:47;101046.61;;;14.04;68.68
59873;BME280;50750;51.636;4.948;2024-02-16T06:39:16;101050.30;;;14.04;68.79
59873;BME280;50750;51.636;4.948;2024-02-16T06:41:45;101055.58;;;14.04;68.80
59873;BME280;50750;51.636;4.948;2024-02-16T06:44:13;101058.96;;;14.04;68.77
59873;BME280;50750;51.636;4.948;2024-02-16T06:46:41;101058.60;;;14.04;68.50
59873;BME280;50750;51.636;4.948;2024-02-16T06:49:09;101069.71;;;14.03;68.62
59873;BME280;50750;51.636;4.948;2024-02-16T06:51:37;101072.55;;;14.03;68.91
59873;BME280;50750;51.636;4.948;2024-02-16T06:54:05;101073.60;;;14.03;68.69
59873;BME280;50750;51.636;4.948;2024-02-16T06:56:34;101077.14;;;14.02;68.60
59873;BME280;50750;51.636;4.948;2024-02-16T06:59:02;101080.50;;;14.02;68.62
59873;BME280;50750;51.636;4.948;2024-02-16T07:01:30;101086.86;;;14.01;68.73
59873;BME280;50750;51.636;4.948;2024-02-16T07:03:58;101090.05;;;14.01;68.85
59873;BME280;50750;51.636;4.948;2024-02-16T07:06:25;101091.85;;;14.00;68.86
59873;BME280;50750;51.636;4.948;2024-02-16T07:08:53;101097.87;;;13.99;68.92
59873;BME280;50750;51.636;4.948;2024-02-16T07:11:21;101100.90;;;13.99;68.74
59873;BME280;50750;51.636;4.948;2024-02-16T07:13:48;101106.73;;;13.98;69.00
59873;BME280;50750;51.636;4.948;2024-02-16T07:16:16;101106.86;;;13.99;68.96
59873;BME280;50750;51.636;4.948;2024-02-16T07:18:45;101108.46;;;13.99;68.99
59873;BME280;50750;51.636;4.948;2024-02-16T07:21:13;101111.46;;;13.99;68.79
59873;BME280;50750;51.636;4.948;2024-02-16T07:23:40;101116.22;;;13.99;68.85
59873;BME280;50750;51.636;4.948;2024-02-16T07:26:08;101124.50;;;13.99;68.87
59873;BME280;50750;51.636;4.948;2024-02-16T07:28:35;101127.54;;;13.97;68.85
59873;BME280;50750;51.636;4.948;2024-02-16T07:31:04;101125.77;;;13.98;68.94
59873;BME280;50750;51.636;4.948;2024-02-16T07:33:31;101128.09;;;13.97;68.80
59873;BME280;50750;51.636;4.948;2024-02-16T07:35:59;101130.55;;;13.97;69.09
59873;BME280;50750;51.636;4.948;2024-02-16T07:38:27;101132.14;;;13.97;69.02
59873;BME280;50750;51.636;4.948;2024-02-16T07:40:56;101134.43;;;13.97;68.99
59873;BME280;50750;51.636;4.948;2024-02-16T07:43:24;101139.17;;;13.97;69.06
59873;BME280;50750;51.636;4.948;2024-02-16T07:45:51;101145.86;;;13.97;69.01
59873;BME280;50750;51.636;4.948;2024-02-16T07:48:21;101142.13;;;13.98;69.01
59873;BME280;50750;51.636;4.948;2024-02-16T07:50:48;101145.83;;;13.98;69.13
59873;BME280;50750;51.636;4.948;2024-02-16T07:53:17;101146.38;;;13.97;68.99
59873;BME280;50750;51.636;4.948;2024-02-16T07:55:45;101148.14;;;13.97;69.24
59873;BME280;50750;51.636;4.948;2024-02-16T07:58:12;101150.27;;;13.97;69.09
59873;BME280;50750;51.636;4.948;2024-02-16T08:00:40;101148.50;;;13.97;69.12
59873;BME280;50750;51.636;4.948;2024-02-16T08:03:08;101145.47;;;13.98;69.17
59873;BME280;50750;51.636;4.948;2024-02-16T08:05:35;101147.55;;;13.99;69.17
59873;BME280;50750;51.636;4.948;2024-02-16T08:08:04;101148.41;;;13.99;69.20
59873;BME280;50750;51.636;4.948;2024-02-16T08:10:32;101150.17;;;13.99;69.16
59873;BME280;50750;51.636;4.948;2024-02-16T08:13:00;101151.04;;;14.00;69.30
59873;BME280;50750;51.636;4.948;2024-02-16T08:15:27;101158.27;;;14.00;69.24
59873;BME280;50750;51.636;4.948;2024-02-16T08:17:56;101157.92;;;13.99;69.16
59873;BME280;50750;51.636;4.948;2024-02-16T08:20:24;101163.56;;;13.99;69.35
59873;BME280;50750;51.636;4.948;2024-02-16T08:22:51;101169.20;;;13.99;69.29
59873;BME280;50750;51.636;4.948;2024-02-16T08:25:19;101172.02;;;13.99;69.23
59873;BME280;50750;51.636;4.948;2024-02-16T08:27:47;101174.81;;;13.99;69.16
59873;BME280;50750;51.636;4.948;2024-02-16T08:30:16;101177.63;;;13.99;69.17
59873;BME280;50750;51.636;4.948;2024-02-16T08:32:44;101183.26;;;14.00;69.17
59873;BME280;50750;51.636;4.948;2024-02-16T08:35:12;101188.17;;;14.00;69.30
59873;BME280;50750;51.636;4.948;2024-02-16T08:37:41;101191.48;;;14.01;69.20
59873;BME280;50750;51.636;4.948;2024-02-16T08:40:13;101196.95;;;14.01;69.20
59873;BME280;50750;51.636;4.948;2024-02-16T08:42:41;101204.52;;;14.01;69.21
59873;BME280;50750;51.636;4.948;2024-02-16T08:45:09;101209.13;;;14.00;69.18
59873;BME280;50750;51.636;4.948;2024-02-16T08:47:39;101214.20;;;14.01;69.20
59873;BME280;50750;51.636;4.948;2024-02-16T08:50:09;101223.02;;;14.00;69.21
59873;BME280;50750;51.636;4.948;2024-02-16T08:52:37;101226.86;;;14.01;69.21
59873;BME280;50750;51.636;4.948;2024-02-16T08:55:06;101231.42;;;14.01;69.14
59873;BME280;50750;51.636;4.948;2024-02-16T08:57:35;101235.64;;;14.02;69.23
59873;BME280;50750;51.636;4.948;2024-02-16T09:00:04;101242.49;;;14.02;69.13
59873;BME280;50750;51.636;4.948;2024-02-16T09:02:31;101246.89;;;14.03;69.39
59873;BME280;50750;51.636;4.948;2024-02-16T09:04:59;101250.94;;;14.02;69.27
59873;BME280;50750;51.636;4.948;2024-02-16T09:07:26;101256.40;;;14.02;69.18
59873;BME280;50750;51.636;4.948;2024-02-16T09:09:54;101257.48;;;14.01;69.32
59873;BME280;50750;51.636;4.948;2024-02-16T09:12:23;101259.95;;;14.01;69.15
59873;BME280;50750;51.636;4.948;2024-02-16T09:14:51;101264.70;;;14.01;69.11
59873;BME280;50750;51.636;4.948;2024-02-16T09:17:18;101265.06;;;14.01;69.20
59873;BME280;50750;51.636;4.948;2024-02-16T09:19:47;101265.38;;;14.02;69.11
59873;BME280;50750;51.636;4.948;2024-02-16T09:22:15;101269.77;;;14.03;69.08
59873;BME280;50750;51.636;4.948;2024-02-16T09:24:43;101272.76;;;14.03;69.10
59873;BME280;50750;51.636;4.948;2024-02-16T09:27:14;101278.38;;;14.03;69.27
59873;BME280;50750;51.636;4.948;2024-02-16T09:29:41;101276.80;;;14.03;69.35
59873;BME280;50750;51.636;4.948;2024-02-16T09:32:09;101286.67;;;14.02;69.31
59873;BME280;50750;51.636;4.948;2024-02-16T09:34:37;101292.84;;;14.03;69.14
59873;BME280;50750;51.636;4.948;2024-02-16T09:37:05;101294.05;;;14.03;69.08
59873;BME280;50750;51.636;4.948;2024-02-16T09:39:32;101295.98;;;14.03;69.13
59873;BME280;50750;51.636;4.948;2024-02-16T09:42:01;101299.46;;;14.04;69.20
59873;BME280;50750;51.636;4.948;2024-02-16T09:44:30;101302.08;;;14.05;69.13
59873;BME280;50750;51.636;4.948;2024-02-16T09:47:00;101310.52;;;14.05;69.26
59873;BME280;50750;51.636;4.948;2024-02-16T09:49:28;101309.46;;;14.05;69.33
59873;BME280;50750;51.636;4.948;2024-02-16T09:52:00;101313.17;;;14.05;69.23
59873;BME280;50750;51.636;4.948;2024-02-16T09:54:31;101317.05;;;14.05;69.20
59873;BME280;50750;51.636;4.948;2024-02-16T09:56:59;101323.20;;;14.05;69.20
59873;BME280;50750;51.636;4.948;2024-02-16T09:59:27;101331.30;;;14.05;69.00
59873;BME280;50750;51.636;4.948;2024-02-16T10:02:00;101336.42;;;14.05;69.30
59873;BME280;50750;51.636;4.948;2024-02-16T10:04:28;101343.64;;;14.05;69.23
59873;BME280;50750;51.636;4.948;2024-02-16T10:06:56;101344.14;;;14.06;69.32
59873;BME280;50750;51.636;4.948;2024-02-16T10:09:26;101349.58;;;14.06;69.36
59873;BME280;50750;51.636;4.948;2024-02-16T10:11:54;101356.60;;;14.07;69.19
59873;BME280;50750;51.636;4.948;2024-02-16T10:14:22;101359.95;;;14.06;69.18
59873;BME280;50750;51.636;4.948;2024-02-16T10:16:59;101362.60;;;14.06;69.28
59873;BME280;50750;51.636;4.948;2024-02-16T10:19:27;101364.38;;;14.06;69.33
59873;BME280;50750;51.636;4.948;2024-02-16T10:21:55;101371.95;;;14.06;69.34
59873;BME280;50750;51.636;4.948;2024-02-16T10:24:32;101376.84;;;14.07;69.30
59873;BME280;50750;51.636;4.948;2024-02-16T10:27:00;101380.20;;;14.06;69.25
59873;BME280;50750;51.636;4.948;2024-02-16T10:29:27;101380.36;;;14.07;69.58
59873;BME280;50750;51.636;4.948;2024-02-16T10:31:55;101390.21;;;14.07;69.46
59873;BME280;50750;51.636;4.948;2024-02-16T10:34:24;101401.10;;;14.08;69.32
59873;BME280;50750;51.636;4.948;2024-02-16T10:36:53;101408.12;;;14.09;69.22
59873;BME280;50750;51.636;4.948;2024-02-16T10:39:22;101420.98;;;14.09;69.31
59873;BME280;50750;51.636;4.948;2024-02-16T10:41:51;101428.21;;;14.09;69.35
59873;BME280;50750;51.636;4.948;2024-02-16T10:44:19;101436.69;;;14.08;69.66
59873;BME280;50750;51.636;4.948;2024-02-16T10:46:48;101435.25;;;14.09;69.29
59873;BME280;50750;51.636;4.948;2024-02-16T10:49:16;101441.73;;;14.09;69.28
59873;BME280;50750;51.636;4.948;2024-02-16T10:51:46;101450.19;;;14.09;69.65
59873;BME280;50750;51.636;4.948;2024-02-16T10:54:17;101454.23;;;14.10;69.49
59873;BME280;50750;51.636;4.948;2024-02-16T10:56:46;101458.45;;;14.10;69.39
59873;BME280;50750;51.636;4.948;2024-02-16T10:59:16;101467.06;;;14.11;69.54
59873;BME280;50750;51.636;4.948;2024-02-16T11:01:45;101467.92;;;14.11;69.62
59873;BME280;50750;51.636;4.948;2024-02-16T11:04:15;101470.91;;;14.11;69.56
59873;BME280;50750;51.636;4.948;2024-02-16T11:06:47;101480.41;;;14.11;69.67
59873;BME280;50750;51.636;4.948;2024-02-16T11:09:34;101474.77;;;14.11;69.63
59873;BME280;50750;51.636;4.948;2024-02-16T11:12:03;101479.86;;;14.12;69.29
59873;BME280;50750;51.636;4.948;2024-02-16T11:14:38;101486.71;;;14.12;69.44
59873;BME280;50750;51.636;4.948;2024-02-16T11:17:10;101488.63;;;14.13;69.60
59873;BME280;50750;51.636;4.948;2024-02-16T11:19:38;101486.85;;;14.14;69.64
59873;BME280;50750;51.636;4.948;2024-02-16T11:22:07;101490.71;;;14.14;69.52
59873;BME280;50750;51.636;4.948;2024-02-16T11:24:36;101490.17;;;14.14;69.70
59873;BME280;50750;51.636;4.948;2024-02-16T11:27:05;101480.83;;;14.14;69.65
59873;BME280;50750;51.636;4.948;2024-02-16T11:29:35;101479.98;;;14.14;69.92
59873;BME280;50750;51.636;4.948;2024-02-16T11:32:05;101486.32;;;14.14;70.24
59873;BME280;50750;51.636;4.948;2024-02-16T11:34:33;101490.91;;;14.13;70.01
59873;BME280;50750;51.636;4.948;2024-02-16T11:37:02;101499.36;;;14.13;69.93
59873;BME280;50750;51.636;4.948;2024-02-16T11:39:30;101501.11;;;14.14;69.90
59873;BME280;50750;51.636;4.948;2024-02-16T11:42:02;101513.06;;;14.14;70.01
59873;BME280;50750;51.636;4.948;2024-02-16T11:44:31;101521.87;;;14.14;69.91
59873;BME280;50750;51.636;4.948;2024-02-16T11:47:00;101521.50;;;14.15;69.97
59873;BME280;50750;51.636;4.948;2024-02-16T11:49:29;101520.27;;;14.14;69.80
59873;BME280;50750;51.636;4.948;2024-02-16T11:52:00;101521.86;;;14.14;69.91
59873;BME280;50750;51.636;4.948;2024-02-16T11:54:27;101524.00;;;14.14;69.77
59873;BME280;50750;51.636;4.948;2024-02-16T11:56:57;101532.80;;;14.14;69.85
59873;BME280;50750;51.636;4.948;2024-02-16T11:59:24;101539.46;;;14.14;69.65
59873;BME280;50750;51.636;4.948;2024-02-16T12:01:54;101541.90;;;14.15;69.52
59873;BME280;50750;51.636;4.948;2024-02-16T12:04:23;101547.00;;;14.16;69.58
59873;BME280;50750;51.636;4.948;2024-02-16T12:06:52;101549.82;;;14.16;69.57
59873;BME280;50750;51.636;4.948;2024-02-16T12:09:20;101551.74;;;14.17;69.63
59873;BME280;50750;51.636;4.948;2024-02-16T12:11:49;101559.67;;;14.17;69.78
59873;BME280;50750;51.636;4.948;2024-02-16T12:14:17;101563.55;;;14.17;69.71
59873;BME280;50750;51.636;4.948;2024-02-16T12:16:48;101572.70;;;14.17;69.63
59873;BME280;50750;51.636;4.948;2024-02-16T12:19:16;101575.87;;;14.17;69.47
59873;BME280;50750;51.636;4.948;2024-02-16T12:21:43;101583.95;;;14.17;69.59
59873;BME280;50750;51.636;4.948;2024-02-16T12:24:11;101590.45;;;14.18;69.58
59873;BME280;50750;51.636;4.948;2024-02-16T12:26:39;101600.98;;;14.18;69.50
59873;BME280;50750;51.636;4.948;2024-02-16T12:29:08;101601.16;;;14.19;69.43
59873;BME280;50750;51.636;4.948;2024-02-16T12:31:39;101599.57;;;14.19;69.41
59873;BME280;50750;51.636;4.948;2024-02-16T12:34:08;101605.55;;;14.19;69.59
59873;BME280;50750;51.636;4.948;2024-02-16T12:36:36;101606.45;;;14.18;69.52
59873;BME280;50750;51.636;4.948;2024-02-16T12:39:04;101613.16;;;14.19;69.53
59873;BME280;50750;51.636;4.948;2024-02-16T12:41:33;101614.74;;;14.18;69.44
59873;BME280;50750;51.636;4.948;2024-02-16T12:44:01;101620.55;;;14.18;69.39
59873;BME280;50750;51.636;4.948;2024-02-16T12:46:29;101623.02;;;14.18;69.43
59873;BME280;50750;51.636;4.948;2024-02-16T12:48:56;101627.39;;;14.19;69.46
59873;BME280;50750;51.636;4.948;2024-02-16T12:51:24;101626.49;;;14.20;69.43
59873;BME280;50750;51.636;4.948;2024-02-16T12:53:52;101628.61;;;14.20;69.40
59873;BME280;50750;51.636;4.948;2024-02-16T12:56:19;101637.06;;;14.20;69.41